Terminal Aerodrome Forecast
Issued by NWS

Home | Current Version | Previous Version | Text Only | Print | Product List | Glossary On
Versions: 1 2 3 4 5 6 7 8 9 10 11 12 13 14
000
FTUS43 KBIS 210525
TAFMOT
TAF
KMOT 210525Z 2106/2206 18005KT P6SM BKN100
     FM210900 20005KT P6SM VCSH BKN100 OVC120
      TEMPO 2109/2113 -SHRA OVC060
     FM211300 19004KT P6SM SCT090 BKN120
     FM211700 29008KT P6SM SCT200
     FM211900 32010KT P6SM SCT200=

USA.gov is the U.S. government's official web portal to all federal, state and local government web resources and services.